Lionilli, Kentucky
Current Conditions -  °F | °C
As of 11:35 PM on Saturday 22 Nov 2014 (Local Time) from KLNP Reporting Station
Clear Clear  
Wind Chill: 50°   Ceiling: Unl
Heat Index: 50°   Visibility: 10mi
Dew Point: 23°   Wind: 10mph
Humidity: 35%   Direction: 160°SSE
Pressure: 30.18"   Gusts: NA
Location:  37.1955°N, 82.6325°W
Report Text: KLNP 230435Z AUTO 16009KT 10SM CLR 10/M05 A3018 RMK AO2
Loading
Personal Weather Stations






























Interactive Weather Map New forecast layout! Learn more

10-Day Weather Forecast

Advertisements
Track Severe Weather on mobile